Time;durP1;ratioP1;P1;durP2;ratioP2;P2;SDS_P1;SDS_P2;PMS_P1;PMS_P2;Temp;Humidity;BMP_temperature;BMP_pressure;BME280_temperature;BME280_humidity;BME280_pressure;Samples;Min_cycle;Max_cycle;Signal;HPM_P1;HPM_P2
2024/01/06 00:01:42;;;;;;;9.45;6.45;;;3.70;99.90;;;;;;5033319;28;20115;-80
2024/01/06 00:04:35;;;;;;;15.13;7.27;;;3.70;99.90;;;;;;5016093;28;20126;-82
2024/01/06 00:07:29;;;;;;;15.93;7.30;;;3.70;99.90;;;;;;5015756;28;20057;-82
2024/01/06 00:10:26;;;;;;;13.63;7.07;;;3.70;99.90;;;;;;5030875;28;20124;-82
2024/01/06 00:13:16;;;;;;;15.25;8.10;;;3.70;99.90;;;;;;5012695;28;20096;-79
2024/01/06 00:16:09;;;;;;;18.25;9.25;;;3.60;99.90;;;;;;5037065;28;20313;-79
2024/01/06 00:19:01;;;;;;;14.77;8.25;;;3.60;99.90;;;;;;5014418;28;20450;-81
2024/01/06 00:21:49;;;;;;;;;;;3.60;99.90;;;;;;5026097;28;20530;-80
2024/01/06 00:24:39;;;;;;;17.75;9.10;;;3.50;99.90;;;;;;5017206;28;19931;-78
2024/01/06 00:27:30;;;;;;;18.98;9.85;;;3.50;99.90;;;;;;5026719;28;20044;-79
2024/01/06 00:30:24;;;;;;;18.77;9.35;;;3.50;99.90;;;;;;5035215;28;20628;-80
2024/01/06 00:33:21;;;;;;;20.52;9.48;;;3.50;99.90;;;;;;5033058;28;20049;-80
2024/01/06 00:36:11;;;;;;;16.13;8.60;;;3.50;99.90;;;;;;5044434;28;20099;-80
2024/01/06 00:39:11;;;;;;;20.23;9.10;;;3.50;99.90;;;;;;5047020;28;20159;-81
2024/01/06 00:42:02;;;;;;;14.57;8.10;;;3.40;99.90;;;;;;5040277;28;20052;-80
2024/01/06 00:44:52;;;;;;;13.00;7.40;;;3.40;99.90;;;;;;5039333;28;20045;-83
2024/01/06 00:47:48;;;;;;;16.45;9.77;;;3.40;99.90;;;;;;5030919;28;20050;-81
2024/01/06 00:50:37;;;;;;;17.45;8.77;;;3.40;99.90;;;;;;5019150;28;20052;-80
2024/01/06 00:53:28;;;;;;;18.75;9.90;;;3.50;99.90;;;;;;5029178;28;20108;-80
2024/01/06 00:56:18;;;;;;;19.33;9.38;;;3.40;99.90;;;;;;5008630;28;20045;-80
2024/01/06 00:59:08;;;;;;;16.63;9.07;;;3.40;99.90;;;;;;5021197;28;20422;-81
2024/01/06 01:02:00;;;;;;;16.75;8.77;;;3.40;99.90;;;;;;5029157;28;20053;-81
2024/01/06 01:04:47;;;;;;;15.50;8.35;;;3.40;99.90;;;;;;5025885;28;20037;-79
2024/01/06 01:07:45;;;;;;;16.52;7.63;;;3.40;99.90;;;;;;5016174;28;20097;-79
2024/01/06 01:10:38;;;;;;;14.52;7.13;;;3.40;99.90;;;;;;5028155;28;20105;-80
2024/01/06 01:13:33;;;;;;;;;;;3.40;99.90;;;;;;5024829;28;20170;-81
2024/01/06 01:16:29;;;;;;;14.25;7.28;;;3.50;99.90;;;;;;5029889;28;20408;-79
2024/01/06 01:19:22;;;;;;;10.50;6.38;;;3.50;99.90;;;;;;5030172;28;20045;-81
2024/01/06 01:22:12;;;;;;;12.75;5.10;;;3.40;99.90;;;;;;5023284;28;20152;-79
2024/01/06 01:25:12;;;;;;;9.77;5.75;;;3.50;99.90;;;;;;5020358;28;20046;-80
2024/01/06 01:28:05;;;;;;;12.10;5.97;;;3.50;99.90;;;;;;5045132;28;20029;-78
2024/01/06 01:30:55;;;;;;;14.23;5.15;;;3.50;99.90;;;;;;5046452;28;20089;-79
2024/01/06 01:33:43;;;;;;;10.73;5.93;;;3.50;99.90;;;;;;5031317;28;20073;-78
2024/01/06 01:36:34;;;;;;;7.40;4.85;;;3.50;99.90;;;;;;5030461;28;20095;-81
2024/01/06 01:39:24;;;;;;;9.85;5.05;;;3.50;99.90;;;;;;5027167;28;20068;-80
2024/01/06 01:42:20;;;;;;;9.27;5.00;;;3.40;99.90;;;;;;5037196;28;20509;-81
2024/01/06 01:45:17;;;;;;;11.70;5.97;;;3.30;99.90;;;;;;5028253;28;20061;-79
2024/01/06 01:48:06;;;;;;;13.73;5.93;;;3.30;99.90;;;;;;5022337;28;20074;-81
2024/01/06 01:50:56;;;;;;;11.88;5.57;;;3.30;99.90;;;;;;5020756;28;20053;-81
2024/01/06 01:53:47;;;;;;;14.63;6.03;;;3.30;99.90;;;;;;5027120;28;20520;-80
2024/01/06 01:56:51;;;;;;;13.77;6.40;;;3.30;99.90;;;;;;5016680;28;20057;-78
2024/01/06 01:59:42;;;;;;;18.73;8.32;;;3.30;99.90;;;;;;5021797;28;20053;-83
2024/01/06 02:02:35;;;;;;;11.60;6.90;;;3.40;99.90;;;;;;5022247;28;20081;-82
2024/01/06 02:05:24;;;;;;;12.73;6.15;;;3.30;99.90;;;;;;5024591;28;20049;-80
2024/01/06 02:08:12;;;;;;;16.30;5.47;;;3.40;99.90;;;;;;5008912;28;20051;-79
2024/01/06 02:11:09;;;;;;;16.25;6.63;;;3.40;99.90;;;;;;5024179;28;20049;-80
2024/01/06 02:13:57;;;;;;;15.60;6.97;;;3.30;99.90;;;;;;5027701;28;20038;-82
2024/01/06 02:16:47;;;;;;;14.45;6.57;;;3.40;99.90;;;;;;5017616;28;20468;-82
2024/01/06 02:19:38;;;;;;;16.50;5.00;;;3.40;99.90;;;;;;5027117;28;20056;-80
2024/01/06 02:22:28;;;;;;;11.30;6.43;;;3.40;99.90;;;;;;5024040;28;20037;-78
2024/01/06 02:25:18;;;;;;;14.85;5.57;;;3.40;99.90;;;;;;5016769;28;20671;-80
2024/01/06 02:28:05;;;;;;;10.10;4.35;;;3.40;99.90;;;;;;5029863;28;20581;-78
2024/01/06 02:30:55;;;;;;;7.85;4.78;;;3.40;99.90;;;;;;5049412;28;20101;-77
2024/01/06 02:33:44;;;;;;;13.75;4.25;;;3.50;99.90;;;;;;5031150;28;20064;-77
2024/01/06 02:36:35;;;;;;;11.52;4.20;;;3.40;99.90;;;;;;5053889;28;20048;-81
2024/01/06 02:39:37;;;;;;;5.35;3.67;;;3.40;99.90;;;;;;5015470;28;20096;-82
2024/01/06 02:42:33;;;;;;;8.18;3.67;;;3.40;99.90;;;;;;5014803;28;20120;-80
2024/01/06 02:45:25;;;;;;;9.10;3.30;;;3.40;99.90;;;;;;5032193;28;20101;-79
2024/01/06 02:48:26;;;;;;;9.32;3.90;;;3.30;99.90;;;;;;5019974;28;20080;-79
2024/01/06 02:51:18;;;;;;;11.80;4.10;;;3.30;99.90;;;;;;5032460;28;20063;-78
2024/01/06 02:54:10;;;;;;;11.90;3.95;;;3.20;99.90;;;;;;5025363;28;20055;-81
2024/01/06 02:57:01;;;;;;;9.52;4.88;;;3.10;99.90;;;;;;5021241;28;20041;-82
2024/01/06 02:59:53;;;;;;;10.52;4.00;;;3.10;99.90;;;;;;5010941;28;20134;-81
2024/01/06 03:03:05;;;;;;;10.73;4.22;;;3.10;99.90;;;;;;5025962;28;20168;-80
2024/01/06 03:06:09;;;;;;;10.95;4.28;;;3.00;99.90;;;;;;5033575;28;20673;-77
2024/01/06 03:09:02;;;;;;;8.27;4.40;;;3.00;99.90;;;;;;5018068;28;20065;-80
2024/01/06 03:11:52;;;;;;;12.23;4.25;;;3.10;99.90;;;;;;5012352;28;20065;-80
2024/01/06 03:14:44;;;;;;;10.98;4.65;;;3.20;99.90;;;;;;5013654;28;20077;-80
2024/01/06 03:17:34;;;;;;;8.05;4.18;;;3.20;99.90;;;;;;5025374;28;20445;-81
2024/01/06 03:20:25;;;;;;;9.43;3.88;;;3.20;99.90;;;;;;5012406;28;20045;-78
2024/01/06 03:23:16;;;;;;;9.13;4.22;;;3.20;99.90;;;;;;5013590;28;20084;-80
2024/01/06 03:26:16;;;;;;;7.73;3.27;;;3.10;99.90;;;;;;5011839;28;20060;-80
2024/01/06 03:29:06;;;;;;;12.43;4.22;;;3.10;99.90;;;;;;5025581;28;20046;-82
2024/01/06 03:31:55;;;;;;;12.52;4.25;;;3.00;99.90;;;;;;5026856;28;20038;-79
2024/01/06 03:34:46;;;;;;;8.52;4.30;;;2.90;99.90;;;;;;5025483;28;20045;-80
2024/01/06 03:37:47;;;;;;;7.13;3.97;;;2.90;99.90;;;;;;5026374;28;20037;-78
2024/01/06 03:40:43;;;;;;;8.20;4.03;;;2.90;99.90;;;;;;5025258;28;20421;-80
2024/01/06 03:43:47;;;;;;;12.13;4.70;;;2.90;99.90;;;;;;5030412;28;20521;-80
2024/01/06 03:46:50;;;;;;;10.38;5.10;;;2.90;99.90;;;;;;5028122;28;20040;-81
2024/01/06 03:49:46;;;;;;;9.65;4.93;;;2.90;99.90;;;;;;5016095;28;20049;-78
2024/01/06 03:52:46;;;;;;;8.05;4.38;;;2.90;99.90;;;;;;5034357;28;20153;-81
2024/01/06 03:55:40;;;;;;;8.40;3.92;;;2.90;99.90;;;;;;5010168;28;20061;-80
2024/01/06 03:58:37;;;;;;;8.10;4.10;;;3.00;99.90;;;;;;5031226;28;20049;-79
2024/01/06 04:01:28;;;;;;;9.52;4.13;;;3.00;99.90;;;;;;5032009;28;20060;-79
2024/01/06 04:04:27;;;;;;;18.30;4.43;;;3.00;99.90;;;;;;5041250;28;20075;-80
2024/01/06 04:07:15;;;;;;;12.27;4.53;;;3.00;99.90;;;;;;5045705;28;20033;-81
2024/01/06 04:10:05;;;;;;;6.72;3.95;;;3.00;99.90;;;;;;5031670;28;20277;-82
2024/01/06 04:12:54;;;;;;;11.93;4.38;;;3.00;99.90;;;;;;5028925;28;20502;-81
2024/01/06 04:15:46;;;;;;;12.80;4.70;;;3.00;99.90;;;;;;5024849;28;20048;-80
2024/01/06 04:18:33;;;;;;;8.15;4.28;;;2.90;99.90;;;;;;5036492;28;20187;-80
2024/01/06 04:21:34;;;;;;;8.07;4.35;;;2.90;99.90;;;;;;5028146;28;20049;-78
2024/01/06 04:24:50;;;;;;;10.60;4.40;;;2.90;99.90;;;;;;5023184;28;20058;-82
2024/01/06 04:27:45;;;;;;;12.27;4.60;;;2.90;99.90;;;;;;5047589;28;20079;-81
2024/01/06 04:30:37;;;;;;;8.65;4.32;;;2.90;99.90;;;;;;5020735;28;20467;-79
2024/01/06 04:33:36;;;;;;;;;;;;;;;;;;;;;
2024/01/06 04:36:27;;;;;;;10.20;4.68;;;2.80;99.90;;;;;;5032010;28;20297;-78
2024/01/06 04:39:27;;;;;;;7.30;4.55;;;2.80;99.90;;;;;;5034859;28;20045;-81
2024/01/06 04:42:15;;;;;;;9.90;4.30;;;2.90;99.90;;;;;;5042372;28;20101;-80
2024/01/06 04:45:11;;;;;;;13.85;4.63;;;2.90;99.90;;;;;;5028595;28;20562;-81
2024/01/06 04:48:09;;;;;;;10.70;4.70;;;3.00;99.90;;;;;;5021774;28;20058;-79
2024/01/06 04:51:03;;;;;;;11.80;4.05;;;3.00;99.90;;;;;;5026098;28;20053;-80
2024/01/06 04:53:55;;;;;;;7.90;3.95;;;3.00;99.90;;;;;;5021180;28;20091;-81
2024/01/06 04:56:45;;;;;;;;;;;3.00;99.90;;;;;;5019317;28;20671;-80
2024/01/06 04:59:43;;;;;;;7.45;4.18;;;3.10;99.90;;;;;;5038937;28;20032;-82
2024/01/06 05:02:35;;;;;;;16.00;4.85;;;3.10;99.90;;;;;;5026180;28;20053;-79
2024/01/06 05:05:26;;;;;;;11.93;5.15;;;3.10;99.90;;;;;;5007525;28;20052;-81
2024/01/06 05:08:17;;;;;;;22.43;5.67;;;3.10;99.90;;;;;;5038128;28;20375;-80
2024/01/06 05:11:13;;;;;;;11.73;4.32;;;3.10;99.90;;;;;;5030140;28;20049;-79
2024/01/06 05:14:09;;;;;;;14.20;4.78;;;3.10;99.90;;;;;;5045342;28;20087;-80
2024/01/06 05:16:56;;;;;;;14.82;5.25;;;3.10;99.90;;;;;;5033707;28;20056;-81
2024/01/06 05:19:48;;;;;;;8.80;4.82;;;3.10;99.90;;;;;;5029519;28;20041;-81
2024/01/06 05:22:39;;;;;;;11.98;5.43;;;3.00;99.90;;;;;;5026429;28;20052;-81
2024/01/06 05:25:30;;;;;;;10.05;5.05;;;3.00;99.90;;;;;;5023353;28;20419;-78
2024/01/06 05:28:22;;;;;;;11.05;4.53;;;3.00;99.90;;;;;;5024548;28;20116;-80
2024/01/06 05:31:12;;;;;;;7.90;4.35;;;3.00;99.90;;;;;;5023534;28;20067;-81
2024/01/06 05:34:00;;;;;;;22.27;4.72;;;3.00;99.90;;;;;;5033834;28;20104;-80
2024/01/06 05:36:47;;;;;;;14.15;4.32;;;3.00;99.90;;;;;;5036501;28;20044;-81
2024/01/06 05:39:38;;;;;;;7.05;4.10;;;3.10;99.90;;;;;;5029121;28;20050;-80
2024/01/06 05:42:55;;;;;;;9.30;3.83;;;3.10;99.90;;;;;;5022328;28;20111;-77
2024/01/06 05:45:53;;;;;;;10.40;4.80;;;3.10;99.90;;;;;;5037052;28;20440;-78
2024/01/06 05:48:44;;;;;;;7.70;4.03;;;3.20;99.90;;;;;;5044796;28;20080;-78
2024/01/06 05:51:34;;;;;;;9.43;3.80;;;3.20;97.60;;;;;;5040331;28;20109;-80
2024/01/06 05:54:22;;;;;;;7.05;3.65;;;3.20;80.30;;;;;;5038389;28;20063;-80
2024/01/06 05:57:12;;;;;;;9.95;3.80;;;3.20;68.00;;;;;;5016231;28;20061;-81
2024/01/06 06:00:01;;;;;;;9.60;3.35;;;3.20;64.80;;;;;;5027412;28;20075;-80
2024/01/06 06:02:50;;;;;;;13.18;3.50;;;3.20;69.20;;;;;;5028328;28;20109;-79
2024/01/06 06:05:49;;;;;;;5.38;3.20;;;3.20;80.50;;;;;;5025425;28;20034;-78
2024/01/06 06:08:39;;;;;;;6.00;3.42;;;3.20;87.80;;;;;;5024451;28;20052;-79
2024/01/06 06:11:30;;;;;;;3.65;2.60;;;3.20;74.60;;;;;;5025027;28;20060;-77
2024/01/06 06:14:20;;;;;;;14.43;3.40;;;3.20;70.60;;;;;;5023915;28;20052;-81
2024/01/06 06:17:14;;;;;;;6.82;2.88;;;3.30;73.10;;;;;;5024320;28;20048;-80
2024/01/06 06:20:10;;;;;;;8.85;3.28;;;3.30;53.50;;;;;;5023750;28;20045;-80
2024/01/06 06:22:58;;;;;;;6.53;2.83;;;3.30;40.40;;;;;;5022404;28;20037;-80
2024/01/06 06:25:45;;;;;;;6.65;2.55;;;3.30;14.30;;;;;;5024704;28;20037;-79
2024/01/06 06:28:40;;;;;;;11.43;3.67;;;3.40;1.00;;;;;;5022496;28;20462;-81
2024/01/06 06:31:27;;;;;;;11.80;4.35;;;3.40;1.00;;;;;;5006940;28;20133;-80
2024/01/06 06:34:15;;;;;;;7.45;3.60;;;3.30;1.00;;;;;;5027512;28;20044;-80
2024/01/06 06:37:06;;;;;;;9.30;3.15;;;3.40;1.00;;;;;;5029304;28;20053;-80
2024/01/06 06:39:53;;;;;;;7.13;3.10;;;3.40;1.00;;;;;;5027153;28;20042;-79
2024/01/06 06:42:44;;;;;;;10.90;2.90;;;3.40;1.00;;;;;;5028246;28;20044;-77
2024/01/06 06:45:35;;;;;;;9.43;3.60;;;3.40;1.00;;;;;;5053143;28;20033;-81
2024/01/06 06:48:26;;;;;;;10.90;3.03;;;3.40;1.00;;;;;;5022352;28;20042;-81
2024/01/06 06:51:17;;;;;;;10.02;3.10;;;3.40;1.00;;;;;;5023158;28;20580;-78
2024/01/06 06:54:12;;;;;;;8.52;3.25;;;3.40;1.00;;;;;;5040279;28;20058;-80
2024/01/06 06:57:08;;;;;;;8.25;3.05;;;3.40;1.00;;;;;;5034128;28;20099;-82
2024/01/06 06:59:56;;;;;;;4.57;2.97;;;3.40;1.00;;;;;;5036724;28;20037;-79
2024/01/06 07:02:48;;;;;;;;;;;3.50;1.00;;;;;;5030081;28;20041;-80
2024/01/06 07:05:36;;;;;;;4.82;2.65;;;3.50;1.00;;;;;;5027884;28;19939;-78
2024/01/06 07:08:30;;;;;;;7.50;2.90;;;3.40;1.00;;;;;;5026822;28;20041;-80
2024/01/06 07:11:19;;;;;;;5.50;2.53;;;3.50;1.00;;;;;;5025005;28;20049;-81
2024/01/06 07:14:13;;;;;;;6.13;2.78;;;3.40;1.00;;;;;;5016524;28;20361;-82
2024/01/06 07:17:00;;;;;;;7.60;2.70;;;3.40;1.00;;;;;;5024182;28;20070;-81
2024/01/06 07:19:54;;;;;;;4.55;2.78;;;3.40;1.00;;;;;;5029195;28;20083;-80
2024/01/06 07:22:44;;;;;;;8.30;3.83;;;3.40;1.00;;;;;;5010549;28;20091;-79
2024/01/06 07:25:31;;;;;;;20.85;7.22;;;3.50;1.00;;;;;;5022326;28;20038;-78
2024/01/06 07:28:25;;;;;;;14.18;5.78;;;3.40;1.00;;;;;;5024394;28;20050;-82
2024/01/06 07:31:19;;;;;;;11.98;4.13;;;3.40;1.00;;;;;;5012117;28;20331;-82
2024/01/06 07:34:28;;;;;;;8.02;3.80;;;3.40;1.00;;;;;;5030189;28;20055;-81
2024/01/06 07:37:19;;;;;;;16.17;4.45;;;3.40;1.00;;;;;;5029238;28;20050;-82
2024/01/06 07:40:16;;;;;;;11.77;4.40;;;3.40;1.00;;;;;;5031121;28;20172;-82
2024/01/06 07:43:10;;;;;;;14.65;4.95;;;3.40;1.00;;;;;;5018899;28;20053;-79
2024/01/06 07:45:59;;;;;;;9.98;3.55;;;3.40;1.00;;;;;;5027961;28;20477;-78
2024/01/06 07:48:54;;;;;;;7.72;3.47;;;3.50;1.00;;;;;;5045234;28;20048;-76
2024/01/06 07:51:43;;;;;;;8.98;3.70;;;3.50;99.90;;;;;;5028346;28;20141;-77
2024/01/06 07:54:30;;;;;;;4.53;2.63;;;3.50;99.90;;;;;;5057592;28;20032;-78
2024/01/06 07:57:27;;;;;;;8.80;3.28;;;3.50;99.90;;;;;;5042573;28;20041;-79
2024/01/06 08:00:15;;;;;;;6.80;2.80;;;3.50;99.90;;;;;;5026440;28;20049;-80
2024/01/06 08:03:05;;;;;;;7.72;3.30;;;3.50;99.90;;;;;;5027341;28;20486;-80
2024/01/06 08:05:54;;;;;;;7.72;3.28;;;3.50;99.90;;;;;;5029990;28;20057;-79
2024/01/06 08:08:41;;;;;;;12.63;4.00;;;3.50;99.90;;;;;;5031249;28;20096;-80
2024/01/06 08:11:31;;;;;;;11.68;4.05;;;3.50;99.90;;;;;;5010084;28;20041;-78
2024/01/06 08:14:22;;;;;;;7.82;3.40;;;3.60;99.90;;;;;;5028529;28;20141;-79
2024/01/06 08:17:15;;;;;;;4.82;3.30;;;3.70;99.90;;;;;;5023143;28;20281;-79
2024/01/06 08:20:09;;;;;;;4.95;3.38;;;3.70;99.90;;;;;;5026357;28;20049;-78
2024/01/06 08:22:57;;;;;;;7.78;3.25;;;3.80;1.00;;;;;;5017454;28;20042;-79
2024/01/06 08:26:03;;;;;;;11.02;2.92;;;3.90;1.00;;;;;;5021194;28;20045;-78
2024/01/06 08:28:53;;;;;;;6.38;3.10;;;4.00;99.90;;;;;;5021971;28;20041;-78
2024/01/06 08:31:54;;;;;;;14.80;3.30;;;4.00;99.90;;;;;;5023310;28;20133;-75
2024/01/06 08:34:50;;;;;;;7.50;4.53;;;4.10;99.90;;;;;;5010232;28;20053;-80
2024/01/06 08:37:43;;;;;;;6.15;3.97;;;4.20;99.90;;;;;;5017465;28;20053;-79
2024/01/06 08:40:36;;;;;;;6.68;3.55;;;4.30;94.90;;;;;;5020891;28;20050;-80
2024/01/06 08:43:23;;;;;;;4.45;3.15;;;4.30;99.90;;;;;;5021898;28;20163;-79
2024/01/06 08:46:11;;;;;;;4.10;3.08;;;4.40;99.90;;;;;;5022444;28;20060;-80
2024/01/06 08:49:02;;;;;;;3.03;2.58;;;4.40;1.00;;;;;;5020134;28;20038;-79
2024/01/06 08:51:55;;;;;;;7.35;4.07;;;4.40;99.90;;;;;;5025408;28;20528;-80
2024/01/06 08:54:43;;;;;;;7.07;3.78;;;4.50;78.70;;;;;;5018420;28;20052;-81
2024/01/06 08:57:31;;;;;;;10.10;3.45;;;4.50;1.00;;;;;;5030678;28;20072;-80
2024/01/06 09:00:21;;;;;;;8.88;4.32;;;4.50;1.00;;;;;;5034655;28;20041;-79
2024/01/06 09:03:25;;;;;;;9.50;5.18;;;4.50;99.90;;;;;;5012368;28;20049;-80
2024/01/06 09:06:19;;;;;;;8.90;4.32;;;4.40;99.90;;;;;;5027934;28;20041;-80
2024/01/06 09:09:10;;;;;;;11.98;5.70;;;4.30;99.90;;;;;;5026131;28;20045;-78
2024/01/06 09:12:04;;;;;;;8.40;4.45;;;4.30;99.90;;;;;;5037240;28;20159;-79
2024/01/06 09:14:55;;;;;;;7.13;3.42;;;4.30;32.60;;;;;;5034052;28;20746;-79
2024/01/06 09:17:57;;;;;;;5.85;3.60;;;4.20;1.00;;;;;;5016455;28;20461;-79
2024/01/06 09:21:03;;;;;;;4.55;3.28;;;4.20;1.00;;;;;;5024310;28;20041;-80
2024/01/06 09:23:57;;;;;;;5.72;2.83;;;4.30;31.40;;;;;;5011714;28;20029;-80
2024/01/06 09:26:50;;;;;;;4.10;2.95;;;4.30;1.00;;;;;;5022638;28;20044;-77
2024/01/06 09:29:37;;;;;;;6.07;2.92;;;4.40;99.90;;;;;;5039522;28;20038;-79
2024/01/06 09:32:28;;;;;;;5.38;3.00;;;4.50;1.00;;;;;;5027710;28;20041;-79
2024/01/06 09:35:24;;;;;;;6.43;3.30;;;4.50;99.90;;;;;;5026205;28;20129;-78
2024/01/06 09:38:15;;;;;;;4.63;3.03;;;4.60;99.90;;;;;;5026474;28;20065;-79
2024/01/06 09:41:14;;;;;;;6.78;3.88;;;4.60;99.90;;;;;;5021858;28;20049;-78
2024/01/06 09:44:05;;;;;;;5.03;2.85;;;4.60;99.90;;;;;;5020914;28;20050;-81
2024/01/06 09:47:11;;;;;;;5.20;3.08;;;4.70;99.90;;;;;;5016177;28;20128;-81
2024/01/06 09:50:03;;;;;;;8.10;4.07;;;4.70;99.90;;;;;;5024599;28;20044;-79
2024/01/06 09:53:06;;;;;;;5.83;4.13;;;4.70;13.70;;;;;;5014443;28;20124;-77
2024/01/06 09:55:57;;;;;;;6.25;3.22;;;4.80;1.00;;;;;;5007526;28;20305;-79
2024/01/06 09:58:45;;;;;;;6.78;3.45;;;4.80;1.00;;;;;;5023568;28;20050;-78
2024/01/06 10:01:36;;;;;;;9.32;4.40;;;4.80;1.00;;;;;;5025410;28;20046;-79
2024/01/06 10:04:26;;;;;;;3.33;2.60;;;4.80;1.00;;;;;;5023761;28;20052;-81
2024/01/06 10:07:21;;;;;;;3.75;2.45;;;4.80;1.00;;;;;;5006548;28;20049;-80
2024/01/06 10:10:12;;;;;;;6.15;3.42;;;4.80;1.00;;;;;;5019769;28;20195;-81
2024/01/06 10:13:05;;;;;;;3.88;2.53;;;4.90;1.00;;;;;;5026348;28;20053;-79
2024/01/06 10:15:59;;;;;;;4.35;2.53;;;5.00;1.00;;;;;;5030436;28;20068;-78
2024/01/06 10:18:48;;;;;;;3.03;2.40;;;5.20;1.00;;;;;;5031020;28;20064;-80
2024/01/06 10:21:44;;;;;;;3.88;3.00;;;5.20;99.90;;;;;;5025655;28;20917;-81
2024/01/06 10:25:07;;;;;;;3.80;2.70;;;5.40;99.90;;;;;;5027621;28;20115;-80
2024/01/06 10:27:59;;;;;;;3.67;2.60;;;5.50;99.90;;;;;;5012067;28;20030;-76
2024/01/06 10:30:47;;;;;;;4.95;2.78;;;5.60;99.90;;;;;;5045846;28;20068;-80
2024/01/06 10:33:37;;;;;;;3.95;2.88;;;5.50;99.90;;;;;;5040035;28;20085;-76
2024/01/06 10:36:26;;;;;;;2.90;1.70;;;5.60;99.90;;;;;;5048458;28;20045;-78
2024/01/06 10:39:21;;;;;;;2.13;1.83;;;5.60;99.90;;;;;;5028723;28;20053;-78
2024/01/06 10:42:14;;;;;;;2.90;1.55;;;5.60;99.90;;;;;;5010438;28;20687;-79
2024/01/06 10:45:15;;;;;;;3.28;1.73;;;5.60;99.90;;;;;;5025759;28;20041;-79
2024/01/06 10:48:06;;;;;;;2.78;1.50;;;5.60;99.90;;;;;;5034948;28;20041;-79
2024/01/06 10:50:57;;;;;;;1.50;1.40;;;5.70;99.90;;;;;;5025455;28;20128;-78
2024/01/06 10:53:58;;;;;;;2.33;1.70;;;5.80;1.00;;;;;;5027922;28;20060;-81
2024/01/06 10:56:47;;;;;;;1.70;1.60;;;5.80;1.00;;;;;;5022480;28;20429;-79
2024/01/06 10:59:37;;;;;;;2.28;1.90;;;5.70;1.00;;;;;;5032474;28;20045;-79
2024/01/06 11:02:26;;;;;;;1.58;1.48;;;5.70;1.00;;;;;;5035143;28;20414;-79
2024/01/06 11:05:14;;;;;;;1.95;1.75;;;5.70;1.00;;;;;;5036722;28;20045;-79
2024/01/06 11:08:05;;;;;;;2.63;1.55;;;5.70;1.00;;;;;;5035772;28;20041;-78
2024/01/06 11:10:58;;;;;;;1.77;1.67;;;5.60;1.00;;;;;;5039082;28;20137;-77
2024/01/06 11:14:37;;;;;;;3.08;1.55;;;5.60;1.00;;;;;;5019707;28;20046;-81
2024/01/06 11:17:53;;;;;;;1.92;1.77;;;5.50;1.00;;;;;;4981527;28;20041;-81
2024/01/06 11:21:17;;;;;;;1.73;1.63;;;5.40;38.60;;;;;;4985026;28;20070;-79
2024/01/06 11:24:20;;;;;;;1.90;1.80;;;5.50;42.20;;;;;;5008512;28;20073;-80
2024/01/06 11:27:09;;;;;;;1.80;1.20;;;5.60;52.30;;;;;;5038080;28;20041;-80
2024/01/06 11:29:58;;;;;;;1.30;1.20;;;5.50;19.00;;;;;;5029201;28;20037;-80
2024/01/06 11:32:52;;;;;;;1.10;1.10;;;5.50;35.30;;;;;;5022688;28;20077;-80
2024/01/06 11:35:49;;;;;;;1.88;1.20;;;5.50;1.00;;;;;;5024744;28;20119;-79
2024/01/06 11:38:50;;;;;;;1.40;1.20;;;5.60;1.00;;;;;;5027294;28;20639;-80
2024/01/06 11:41:52;;;;;;;1.70;1.38;;;5.60;22.40;;;;;;5024819;28;20092;-80
2024/01/06 11:45:09;;;;;;;2.20;1.60;;;5.50;45.80;;;;;;5031270;28;20487;-79
2024/01/06 11:48:03;;;;;;;1.40;1.30;;;5.50;72.50;;;;;;5035293;28;20072;-81
2024/01/06 11:51:02;;;;;;;1.50;1.30;;;5.40;66.60;;;;;;5035955;28;20155;-78
2024/01/06 11:53:51;;;;;;;1.67;1.55;;;5.50;89.00;;;;;;5028167;28;20107;-79
2024/01/06 11:56:39;;;;;;;1.92;1.77;;;5.50;99.50;;;;;;5014476;28;20156;-79
2024/01/06 11:59:30;;;;;;;1.38;1.30;;;5.60;97.90;;;;;;5029188;28;20068;-79
2024/01/06 12:02:25;;;;;;;2.17;1.65;;;5.70;47.90;;;;;;5025550;28;20049;-79
2024/01/06 12:05:17;;;;;;;1.65;1.48;;;5.80;91.40;;;;;;5045002;28;20037;-78
2024/01/06 12:08:09;;;;;;;4.63;2.50;;;6.00;36.10;;;;;;5038223;28;20084;-79
2024/01/06 12:11:03;;;;;;;1.55;1.45;;;6.20;13.90;;;;;;5031305;28;20053;-78
2024/01/06 12:13:53;;;;;;;2.05;1.50;;;6.30;1.00;;;;;;5011722;28;20049;-79
2024/01/06 12:16:41;;;;;;;1.65;1.30;;;6.30;1.00;;;;;;5026144;28;20548;-79
2024/01/06 12:19:39;;;;;;;2.65;1.20;;;6.20;1.00;;;;;;5027073;28;20042;-80
2024/01/06 12:22:32;;;;;;;1.60;1.50;;;6.30;1.00;;;;;;5012460;28;20056;-80
2024/01/06 12:25:28;;;;;;;7.30;4.57;;;6.10;1.00;;;;;;5013698;28;20128;-79
2024/01/06 12:28:16;;;;;;;1.35;1.25;;;5.80;1.00;;;;;;5020680;28;20588;-81
2024/01/06 12:31:09;;;;;;;3.78;1.20;;;5.70;1.00;;;;;;5023050;28;20057;-80
2024/01/06 12:34:00;;;;;;;1.95;1.33;;;5.80;1.00;;;;;;5017486;28;20049;-81
2024/01/06 12:36:54;;;;;;;1.33;1.23;;;5.80;1.00;;;;;;5035866;28;20033;-79
2024/01/06 12:39:50;;;;;;;1.65;1.55;;;5.80;1.00;;;;;;5030758;28;20527;-77
2024/01/06 12:42:50;;;;;;;1.45;1.35;;;5.90;1.00;;;;;;5027150;28;20037;-80
2024/01/06 12:45:38;;;;;;;1.98;1.63;;;5.90;1.00;;;;;;5025330;28;20042;-79
2024/01/06 12:48:29;;;;;;;2.03;1.60;;;5.80;1.00;;;;;;5040368;28;20042;-80
2024/01/06 12:51:16;;;;;;;1.67;1.23;;;5.90;3.50;;;;;;5029883;28;20495;-81
2024/01/06 12:54:15;;;;;;;2.58;1.90;;;5.90;18.50;;;;;;5022355;28;20461;-79
2024/01/06 12:57:03;;;;;;;1.48;1.38;;;5.90;1.00;;;;;;5042406;28;20098;-80
2024/01/06 12:59:54;;;;;;;1.20;1.20;;;6.10;1.00;;;;;;5037850;28;20045;-79
2024/01/06 13:02:46;;;;;;;1.92;1.30;;;6.00;1.00;;;;;;5030174;28;20038;-77
2024/01/06 13:05:34;;;;;;;1.10;1.10;;;6.00;1.00;;;;;;5029934;28;20069;-80
2024/01/06 13:08:27;;;;;;;1.10;1.10;;;5.90;1.00;;;;;;5039027;28;20101;-78
2024/01/06 13:11:29;;;;;;;1.45;1.30;;;6.00;1.00;;;;;;5031983;28;20057;-79
2024/01/06 13:14:23;;;;;;;0.98;0.98;;;6.00;1.00;;;;;;5051994;28;20033;-78
2024/01/06 13:17:10;;;;;;;1.08;1.08;;;5.90;1.00;;;;;;5034527;28;20256;-80
2024/01/06 13:19:58;;;;;;;1.73;1.33;;;5.80;1.00;;;;;;5022825;28;20042;-80
2024/01/06 13:22:46;;;;;;;1.20;1.13;;;5.70;1.00;;;;;;5024687;28;20464;-79
2024/01/06 13:25:35;;;;;;;1.40;1.30;;;5.60;1.00;;;;;;5035625;28;20058;-79
2024/01/06 13:28:25;;;;;;;1.10;1.10;;;5.50;1.00;;;;;;5031875;28;20045;-79
2024/01/06 13:31:26;;;;;;;1.52;1.40;;;5.50;4.10;;;;;;5030906;28;20042;-78
2024/01/06 13:34:17;;;;;;;1.80;1.50;;;5.40;56.00;;;;;;5022074;28;20045;-80
2024/01/06 13:37:08;;;;;;;1.55;1.45;;;5.30;99.90;;;;;;5017477;28;20054;-76
2024/01/06 13:40:03;;;;;;;2.07;1.70;;;5.30;99.90;;;;;;5011538;28;20040;-79
2024/01/06 13:42:52;;;;;;;1.83;1.73;;;5.20;99.90;;;;;;5013476;28;20303;-79
2024/01/06 13:45:44;;;;;;;1.63;1.50;;;5.20;99.90;;;;;;5024812;28;20134;-78
2024/01/06 13:48:34;;;;;;;2.75;1.65;;;5.10;99.90;;;;;;5032451;28;20038;-78
2024/01/06 13:51:22;;;;;;;1.55;1.45;;;5.20;1.00;;;;;;5035915;28;20084;-80
2024/01/06 13:54:10;;;;;;;1.60;1.50;;;5.10;1.00;;;;;;5028622;28;20200;-80
2024/01/06 13:57:00;;;;;;;1.77;1.67;;;5.10;1.00;;;;;;5022150;28;20053;-81
2024/01/06 13:59:48;;;;;;;1.85;1.75;;;5.00;1.00;;;;;;5028474;28;20171;-80
2024/01/06 14:02:39;;;;;;;2.40;2.20;;;5.00;99.90;;;;;;5026633;28;20075;-80
2024/01/06 14:05:27;;;;;;;2.38;2.17;;;5.00;1.00;;;;;;5022456;28;20124;-80
2024/01/06 14:08:16;;;;;;;2.70;2.50;;;4.90;1.00;;;;;;5019747;28;20553;-79
2024/01/06 14:11:05;;;;;;;4.47;3.35;;;4.80;99.90;;;;;;5018316;28;20778;-79
2024/01/06 14:13:53;;;;;;;2.55;2.35;;;4.80;1.00;;;;;;5023977;28;20072;-80
2024/01/06 14:16:43;;;;;;;2.90;2.50;;;4.80;99.90;;;;;;5026677;28;20105;-79
2024/01/06 14:19:30;;;;;;;3.15;2.85;;;4.80;99.90;;;;;;5020596;28;20748;-79
2024/01/06 14:22:18;;;;;;;3.70;2.85;;;4.80;1.00;;;;;;5021179;28;20054;-81
2024/01/06 14:25:09;;;;;;;4.47;2.90;;;4.80;27.90;;;;;;5021106;28;20054;-78
2024/01/06 14:27:56;;;;;;;3.38;2.42;;;4.80;1.00;;;;;;5018927;28;20415;-79
2024/01/06 14:30:49;;;;;;;2.78;2.58;;;4.70;99.90;;;;;;5023414;28;20486;-76
2024/01/06 14:33:45;;;;;;;2.90;2.67;;;4.70;28.00;;;;;;5031106;28;20048;-79
2024/01/06 14:36:37;;;;;;;3.60;3.25;;;4.60;99.90;;;;;;5032978;28;20045;-79
2024/01/06 14:39:24;;;;;;;4.03;2.95;;;4.60;99.90;;;;;;5033371;28;20038;-80
2024/01/06 14:42:12;;;;;;;2.88;2.55;;;4.60;1.00;;;;;;5005014;28;20089;-81
2024/01/06 14:45:00;;;;;;;3.50;3.10;;;4.50;1.00;;;;;;5045580;28;20039;-77
2024/01/06 14:47:53;;;;;;;3.30;2.63;;;4.50;99.90;;;;;;5020893;28;20046;-81
2024/01/06 14:50:43;;;;;;;3.55;3.10;;;4.50;1.00;;;;;;5026224;28;20064;-79
2024/01/06 14:53:34;;;;;;;3.70;2.90;;;4.40;26.10;;;;;;5024320;28;20188;-78
2024/01/06 14:56:30;;;;;;;4.55;3.53;;;4.40;55.70;;;;;;5022692;28;20496;-78
2024/01/06 14:59:21;;;;;;;3.50;3.20;;;4.40;99.90;;;;;;5026531;28;20041;-81
2024/01/06 15:02:12;;;;;;;5.38;3.72;;;4.40;99.90;;;;;;5024149;28;20080;-80
2024/01/06 15:05:05;;;;;;;4.35;3.83;;;4.40;99.90;;;;;;5025073;28;20046;-79
2024/01/06 15:07:58;;;;;;;4.22;3.60;;;4.40;99.90;;;;;;5022271;28;20042;-80
2024/01/06 15:10:46;;;;;;;4.78;4.07;;;4.30;99.90;;;;;;5019780;28;20410;-80
2024/01/06 15:13:35;;;;;;;4.75;4.25;;;4.30;99.90;;;;;;5023906;28;20084;-79
2024/01/06 15:16:23;;;;;;;5.45;4.68;;;4.20;1.00;;;;;;5021893;28;20056;-78